createdAt,value
2018-07-16T00:00:58.743Z,17.27
2018-07-16T00:01:58.744Z,17.17
2018-07-16T00:02:58.745Z,17.20
2018-07-16T00:03:58.744Z,17.27
2018-07-16T00:04:58.746Z,17.27
2018-07-16T00:05:58.747Z,17.24
2018-07-16T00:06:58.746Z,17.27
2018-07-16T00:07:58.747Z,17.32
2018-07-16T00:08:58.749Z,17.28
2018-07-16T00:09:58.747Z,17.37
2018-07-16T00:10:58.749Z,17.35
2018-07-16T00:11:58.749Z,17.30
2018-07-16T00:12:58.749Z,17.30
2018-07-16T00:13:58.751Z,17.17
2018-07-16T00:14:58.751Z,17.34
2018-07-16T00:15:58.751Z,17.13
2018-07-16T00:16:58.752Z,17.22
2018-07-16T00:17:58.753Z,17.16
2018-07-16T00:18:58.754Z,17.22
2018-07-16T00:19:58.754Z,17.04
2018-07-16T00:20:58.755Z,17.12
2018-07-16T00:21:58.756Z,17.05
2018-07-16T00:22:58.756Z,17.02
2018-07-16T00:23:58.757Z,17.04
2018-07-16T00:24:58.756Z,17.05
2018-07-16T00:25:58.757Z,17.04
2018-07-16T00:26:58.759Z,17.07
2018-07-16T00:27:58.759Z,17.09
2018-07-16T00:28:58.759Z,17.07
2018-07-16T00:29:58.759Z,17.02
2018-07-16T00:30:58.761Z,17.01
2018-07-16T00:31:58.763Z,17.05
2018-07-16T00:32:58.763Z,16.98
2018-07-16T00:33:58.762Z,17.02
2018-07-16T00:34:58.765Z,16.97
2018-07-16T00:35:58.762Z,16.95
2018-07-16T00:36:58.764Z,16.97
2018-07-16T00:37:58.765Z,16.97
2018-07-16T00:38:58.765Z,16.99
2018-07-16T00:39:58.765Z,17.09
2018-07-16T00:40:58.766Z,16.98
2018-07-16T00:41:58.767Z,17.07
2018-07-16T00:42:58.767Z,17.12
2018-07-16T00:43:58.767Z,17.14
2018-07-16T00:44:58.769Z,17.14
2018-07-16T00:45:58.769Z,17.07
2018-07-16T00:46:58.769Z,17.02
2018-07-16T00:47:58.768Z,17.10
2018-07-16T00:48:58.769Z,17.04
2018-07-16T00:49:58.769Z,17.02
2018-07-16T00:50:58.772Z,17.01
2018-07-16T00:51:58.770Z,16.95
2018-07-16T00:52:58.770Z,17.01
2018-07-16T00:53:58.772Z,16.99
2018-07-16T00:54:58.773Z,17.01
2018-07-16T00:55:58.774Z,16.99
2018-07-16T00:56:58.773Z,16.92
2018-07-16T00:57:58.774Z,16.99
2018-07-16T00:58:58.774Z,16.98
2018-07-16T00:59:58.774Z,16.97
2018-07-16T01:00:58.774Z,16.94
2018-07-16T01:01:58.776Z,16.98
2018-07-16T01:02:58.777Z,17.01
2018-07-16T01:03:58.777Z,16.99
2018-07-16T01:04:58.777Z,16.99
2018-07-16T01:05:58.778Z,16.98
2018-07-16T01:06:58.778Z,16.98
2018-07-16T01:07:58.778Z,16.92
2018-07-16T01:08:58.778Z,16.91
2018-07-16T01:09:58.779Z,16.89
2018-07-16T01:10:58.778Z,16.82
2018-07-16T01:11:58.780Z,16.89
2018-07-16T01:12:58.781Z,16.89
2018-07-16T01:13:58.781Z,16.84
2018-07-16T01:14:58.781Z,16.83
2018-07-16T01:15:58.780Z,16.76
2018-07-16T01:16:58.781Z,16.84
2018-07-16T01:17:58.781Z,16.95
2018-07-16T01:18:58.783Z,16.87
2018-07-16T01:19:58.781Z,16.82
2018-07-16T01:20:58.781Z,16.84
2018-07-16T01:21:58.783Z,16.79
2018-07-16T01:22:58.785Z,16.91
2018-07-16T01:23:58.783Z,16.73
2018-07-16T01:24:58.787Z,16.77
2018-07-16T01:25:58.785Z,16.79
2018-07-16T01:26:58.784Z,16.86
2018-07-16T01:27:58.784Z,16.80
2018-07-16T01:28:58.784Z,16.79
2018-07-16T01:29:58.786Z,16.76
2018-07-16T01:30:58.785Z,16.77
2018-07-16T01:31:58.784Z,16.76
2018-07-16T01:32:58.786Z,16.74
2018-07-16T01:33:58.787Z,16.74
2018-07-16T01:34:58.787Z,16.80
2018-07-16T01:35:58.786Z,16.77
2018-07-16T01:36:58.787Z,16.69
2018-07-16T01:37:58.788Z,16.62
2018-07-16T01:38:58.788Z,16.65
2018-07-16T01:39:58.788Z,16.69
2018-07-16T01:40:58.787Z,16.68
2018-07-16T01:41:58.788Z,16.66
2018-07-16T01:42:58.790Z,16.54
2018-07-16T01:43:58.790Z,16.57
2018-07-16T01:44:58.793Z,16.65
2018-07-16T01:45:58.790Z,16.64
2018-07-16T01:46:58.789Z,16.64
2018-07-16T01:47:58.789Z,16.64
2018-07-16T01:48:58.794Z,16.62
2018-07-16T01:49:58.792Z,16.64
2018-07-16T01:50:58.791Z,16.62
2018-07-16T01:51:58.791Z,16.59
2018-07-16T01:52:58.790Z,16.61
2018-07-16T01:53:58.792Z,16.58
2018-07-16T01:54:58.792Z,16.66
2018-07-16T01:55:58.796Z,16.66
2018-07-16T01:56:58.793Z,16.74
2018-07-16T01:57:58.793Z,16.76
2018-07-16T01:58:58.794Z,16.76
2018-07-16T01:59:58.793Z,16.68
2018-07-16T02:00:58.793Z,16.77
2018-07-16T02:01:58.794Z,16.84
2018-07-16T02:02:58.794Z,16.84
2018-07-16T02:03:58.794Z,16.79
2018-07-16T02:04:58.794Z,16.83
2018-07-16T02:05:58.795Z,16.83
2018-07-16T02:06:58.795Z,16.76
2018-07-16T02:07:58.795Z,16.82
2018-07-16T02:08:58.794Z,16.72
2018-07-16T02:09:58.795Z,16.72
2018-07-16T02:10:58.796Z,16.69
2018-07-16T02:11:58.796Z,16.66
2018-07-16T02:12:58.795Z,16.65
2018-07-16T02:13:58.797Z,16.65
2018-07-16T02:14:58.798Z,16.69
2018-07-16T02:15:58.797Z,16.68
2018-07-16T02:16:58.797Z,16.68
2018-07-16T02:17:58.798Z,16.66
2018-07-16T02:18:58.797Z,16.69
2018-07-16T02:19:58.797Z,16.64
2018-07-16T02:20:58.797Z,16.65
2018-07-16T02:21:58.799Z,16.64
2018-07-16T02:22:58.800Z,16.62
2018-07-16T02:23:58.798Z,16.64
2018-07-16T02:24:58.799Z,16.62
2018-07-16T02:25:58.799Z,16.69
2018-07-16T02:26:58.800Z,16.66
2018-07-16T02:27:58.798Z,16.72
2018-07-16T02:28:58.798Z,16.57
2018-07-16T02:29:58.800Z,16.62
2018-07-16T02:30:58.799Z,16.72
2018-07-16T02:31:58.802Z,16.61
2018-07-16T02:32:58.799Z,16.50
2018-07-16T02:33:58.804Z,16.46
2018-07-16T02:34:58.800Z,16.43
2018-07-16T02:35:58.799Z,16.44
2018-07-16T02:36:58.800Z,16.41
2018-07-16T02:37:58.802Z,16.44
2018-07-16T02:38:58.800Z,16.47
2018-07-16T02:39:58.800Z,16.54
2018-07-16T02:40:58.804Z,16.57
2018-07-16T02:41:58.801Z,16.61
2018-07-16T02:42:58.803Z,16.61
2018-07-16T02:43:58.801Z,16.54
2018-07-16T02:44:58.799Z,16.65
2018-07-16T02:45:58.802Z,16.57
2018-07-16T02:46:58.802Z,16.69
2018-07-16T02:47:58.800Z,16.61
2018-07-16T02:48:58.800Z,16.65
2018-07-16T02:49:58.800Z,16.62
2018-07-16T02:50:58.807Z,16.59
2018-07-16T02:51:58.803Z,16.59
2018-07-16T02:52:58.803Z,16.54
2018-07-16T02:53:58.801Z,16.59
2018-07-16T02:54:58.804Z,16.58
2018-07-16T02:55:58.801Z,16.55
2018-07-16T02:56:58.801Z,16.55
2018-07-16T02:57:58.801Z,16.51
2018-07-16T02:58:58.801Z,16.55
2018-07-16T02:59:58.801Z,16.55
2018-07-16T03:00:58.801Z,16.51
2018-07-16T03:01:58.802Z,16.55
2018-07-16T03:02:58.802Z,16.57
2018-07-16T03:03:58.800Z,16.51
2018-07-16T03:04:58.801Z,16.47
2018-07-16T03:05:58.801Z,16.50
2018-07-16T03:06:58.802Z,16.50
2018-07-16T03:07:58.802Z,16.50
2018-07-16T03:08:58.800Z,16.39
2018-07-16T03:09:58.802Z,16.49
2018-07-16T03:10:58.802Z,16.49
2018-07-16T03:11:58.800Z,16.47
2018-07-16T03:12:58.801Z,16.49
2018-07-16T03:13:58.804Z,16.55
2018-07-16T03:14:58.801Z,16.41
2018-07-16T03:15:58.800Z,16.50
2018-07-16T03:16:58.801Z,16.55
2018-07-16T03:17:58.821Z,16.47
2018-07-16T03:18:58.800Z,16.55
2018-07-16T03:19:58.800Z,16.57
2018-07-16T03:20:58.800Z,16.61
2018-07-16T03:21:58.801Z,16.57
2018-07-16T03:22:58.801Z,16.61
2018-07-16T03:23:58.807Z,16.57
2018-07-16T03:24:58.800Z,16.58
2018-07-16T03:25:58.800Z,16.49
2018-07-16T03:26:58.801Z,16.59
2018-07-16T03:27:58.801Z,16.47
2018-07-16T03:28:58.800Z,16.47
2018-07-16T03:29:58.801Z,16.46
2018-07-16T03:30:58.800Z,16.32
2018-07-16T03:31:58.801Z,16.34
2018-07-16T03:32:58.799Z,16.34
2018-07-16T03:33:58.801Z,16.34
2018-07-16T03:34:58.801Z,16.26
2018-07-16T03:35:58.798Z,16.26
2018-07-16T03:36:58.800Z,16.31
2018-07-16T03:37:58.799Z,16.36
2018-07-16T03:38:58.802Z,16.39
2018-07-16T03:39:58.800Z,16.50
2018-07-16T03:40:58.800Z,16.46
2018-07-16T03:41:58.799Z,16.51
2018-07-16T03:42:58.799Z,16.49
2018-07-16T03:43:58.799Z,16.43
2018-07-16T03:44:58.798Z,16.41
2018-07-16T03:45:58.800Z,16.47
2018-07-16T03:46:58.800Z,16.49
2018-07-16T03:47:58.862Z,16.49
2018-07-16T03:48:58.799Z,16.47
2018-07-16T03:49:58.801Z,16.39
2018-07-16T03:50:58.799Z,16.49
2018-07-16T03:51:58.798Z,16.50
2018-07-16T03:52:58.799Z,16.58
2018-07-16T03:53:58.799Z,16.57
2018-07-16T03:54:58.836Z,16.54
2018-07-16T03:55:58.884Z,16.61
2018-07-16T03:56:58.799Z,16.51
2018-07-16T03:57:58.799Z,16.44
2018-07-16T03:58:58.798Z,16.44
2018-07-16T03:59:58.803Z,16.58
2018-07-16T04:00:58.799Z,16.51
2018-07-16T04:01:58.798Z,16.51
2018-07-16T04:02:58.809Z,16.58
2018-07-16T04:03:58.797Z,16.51
2018-07-16T04:04:58.798Z,16.51
2018-07-16T04:05:58.799Z,16.43
2018-07-16T04:06:58.798Z,16.41
2018-07-16T04:07:58.805Z,16.32
2018-07-16T04:08:58.798Z,16.34
2018-07-16T04:09:58.805Z,16.32
2018-07-16T04:10:58.800Z,16.34
2018-07-16T04:11:58.804Z,16.37
2018-07-16T04:12:58.802Z,16.36
2018-07-16T04:13:58.802Z,16.40
2018-07-16T04:14:58.801Z,16.43
2018-07-16T04:15:58.804Z,16.44
2018-07-16T04:16:58.803Z,16.40
2018-07-16T04:17:58.798Z,16.47
2018-07-16T04:18:58.798Z,16.51
2018-07-16T04:19:58.800Z,16.55
2018-07-16T04:20:58.802Z,16.58
2018-07-16T04:21:58.798Z,16.62
2018-07-16T04:22:58.800Z,16.59
2018-07-16T04:23:58.798Z,16.59
2018-07-16T04:24:58.797Z,16.66
2018-07-16T04:25:58.801Z,16.77
2018-07-16T04:26:58.800Z,16.83
2018-07-16T04:27:58.797Z,16.80
2018-07-16T04:28:58.798Z,16.77
2018-07-16T04:29:58.799Z,16.79
2018-07-16T04:30:58.831Z,16.84
2018-07-16T04:31:58.799Z,16.82
2018-07-16T04:32:58.799Z,16.79
2018-07-16T04:33:58.799Z,16.80
2018-07-16T04:34:58.800Z,16.86
2018-07-16T04:35:58.798Z,16.86
2018-07-16T04:36:58.799Z,16.80
2018-07-16T04:37:58.800Z,16.82
2018-07-16T04:38:58.798Z,16.74
2018-07-16T04:39:58.875Z,16.79
2018-07-16T04:40:58.799Z,16.83
2018-07-16T04:41:58.799Z,16.73
2018-07-16T04:42:58.799Z,16.74
2018-07-16T04:43:58.799Z,16.64
2018-07-16T04:44:58.799Z,16.59
2018-07-16T04:45:58.802Z,16.55
2018-07-16T04:46:58.800Z,16.62
2018-07-16T04:47:58.799Z,16.59
2018-07-16T04:48:58.802Z,16.64
2018-07-16T04:49:58.800Z,16.58
2018-07-16T04:50:58.800Z,16.55
2018-07-16T04:51:58.800Z,16.61
2018-07-16T04:52:58.803Z,16.55
2018-07-16T04:53:58.801Z,16.49
2018-07-16T04:54:58.801Z,16.46
2018-07-16T04:55:58.800Z,16.46
2018-07-16T04:56:58.800Z,16.40
2018-07-16T04:57:58.799Z,16.39
2018-07-16T04:58:58.801Z,16.40
2018-07-16T04:59:58.800Z,16.37
2018-07-16T05:00:58.801Z,16.39
2018-07-16T05:01:58.801Z,16.40
2018-07-16T05:02:58.801Z,16.43
2018-07-16T05:03:58.800Z,16.43
2018-07-16T05:04:58.804Z,16.37
2018-07-16T05:05:58.804Z,16.46
2018-07-16T05:06:58.803Z,16.51
2018-07-16T05:07:58.800Z,16.41
2018-07-16T05:08:58.801Z,16.57
2018-07-16T05:09:58.800Z,16.59
2018-07-16T05:10:58.802Z,16.49
2018-07-16T05:11:58.801Z,16.59
2018-07-16T05:12:58.802Z,16.55
2018-07-16T05:13:58.802Z,16.54
2018-07-16T05:14:58.802Z,16.50
2018-07-16T05:15:58.802Z,16.55
2018-07-16T05:16:58.801Z,16.43
2018-07-16T05:17:58.876Z,16.40
2018-07-16T05:18:58.803Z,16.36
2018-07-16T05:19:58.803Z,16.37
2018-07-16T05:20:58.802Z,16.40
2018-07-16T05:21:58.803Z,16.51
2018-07-16T05:22:58.804Z,16.54
2018-07-16T05:23:58.809Z,16.64
2018-07-16T05:24:58.802Z,16.59
2018-07-16T05:25:58.836Z,16.62
2018-07-16T05:26:58.878Z,16.62
2018-07-16T05:27:58.803Z,16.57
2018-07-16T05:28:58.824Z,16.68
2018-07-16T05:29:58.921Z,16.68
2018-07-16T05:30:58.872Z,16.64
2018-07-16T05:31:58.865Z,16.62
2018-07-16T05:32:58.805Z,16.62
2018-07-16T05:33:58.804Z,16.72
2018-07-16T05:34:58.805Z,16.68
2018-07-16T05:35:58.804Z,16.69
2018-07-16T05:36:58.805Z,16.65
2018-07-16T05:37:58.911Z,16.61
2018-07-16T05:38:58.804Z,16.59
2018-07-16T05:39:58.807Z,16.51
2018-07-16T05:40:58.805Z,16.51
2018-07-16T05:41:58.805Z,16.46
2018-07-16T05:42:58.807Z,16.39
2018-07-16T05:43:58.926Z,16.37
2018-07-16T05:44:59.289Z,16.28
2018-07-16T05:45:58.806Z,16.17
2018-07-16T05:46:58.807Z,16.03
2018-07-16T05:47:58.805Z,16.06
2018-07-16T05:48:58.806Z,16.00
2018-07-16T05:49:58.806Z,16.09
2018-07-16T05:50:58.807Z,16.06
2018-07-16T05:51:58.805Z,15.92
2018-07-16T05:52:58.806Z,16.06
2018-07-16T05:53:58.807Z,15.98
2018-07-16T05:54:58.810Z,16.02
2018-07-16T05:55:58.807Z,16.06
2018-07-16T05:56:58.806Z,15.99
2018-07-16T05:57:58.806Z,16.08
2018-07-16T05:58:58.807Z,16.09
2018-07-16T05:59:58.806Z,16.10
2018-07-16T06:00:58.807Z,16.26
2018-07-16T06:01:58.808Z,16.41
2018-07-16T06:02:58.809Z,16.32
2018-07-16T06:03:58.907Z,16.44
2018-07-16T06:04:58.841Z,16.43
2018-07-16T06:05:58.838Z,16.39
2018-07-16T06:06:58.808Z,16.34
2018-07-16T06:07:58.828Z,16.28
2018-07-16T06:08:58.828Z,16.36
2018-07-16T06:09:58.808Z,16.37
2018-07-16T06:10:58.807Z,16.41
2018-07-16T06:11:58.808Z,16.34
2018-07-16T06:12:58.809Z,16.58
2018-07-16T06:13:58.808Z,16.55
2018-07-16T06:14:58.808Z,16.61
2018-07-16T06:15:58.808Z,16.55
2018-07-16T06:16:58.809Z,16.65
2018-07-16T06:17:58.809Z,16.62
2018-07-16T06:18:58.810Z,16.76
2018-07-16T06:19:58.809Z,16.77
2018-07-16T06:20:58.809Z,16.82
2018-07-16T06:21:58.810Z,16.72
2018-07-16T06:22:58.810Z,16.69
2018-07-16T06:23:58.861Z,16.66
2018-07-16T06:24:58.812Z,16.77
2018-07-16T06:25:58.811Z,16.83
2018-07-16T06:26:58.812Z,16.92
2018-07-16T06:27:58.811Z,16.94
2018-07-16T06:28:58.827Z,17.01
2018-07-16T06:29:58.812Z,16.99
2018-07-16T06:30:58.813Z,17.04
2018-07-16T06:31:58.813Z,17.17
2018-07-16T06:32:58.814Z,17.16
2018-07-16T06:33:58.815Z,17.17
2018-07-16T06:34:58.814Z,17.27
2018-07-16T06:35:59.140Z,17.35
2018-07-16T06:36:58.815Z,17.38
2018-07-16T06:37:58.816Z,17.38
2018-07-16T06:38:58.818Z,17.39
2018-07-16T06:39:58.896Z,17.46
2018-07-16T06:40:58.970Z,17.53
2018-07-16T06:41:58.819Z,17.53
2018-07-16T06:42:58.820Z,17.57
2018-07-16T06:43:58.820Z,17.59
2018-07-16T06:44:58.821Z,17.68
2018-07-16T06:45:58.822Z,17.76
2018-07-16T06:46:58.824Z,17.71
2018-07-16T06:47:58.823Z,17.72
2018-07-16T06:48:58.860Z,17.76
2018-07-16T06:49:58.827Z,17.71
2018-07-16T06:50:58.835Z,17.69
2018-07-16T06:51:58.830Z,17.73
2018-07-16T06:52:58.829Z,17.72
2018-07-16T06:53:58.829Z,17.79
2018-07-16T06:54:58.885Z,17.78
2018-07-16T06:55:58.832Z,17.73
2018-07-16T06:56:58.834Z,17.80
2018-07-16T06:57:58.835Z,17.86
2018-07-16T06:58:58.835Z,17.93
2018-07-16T06:59:58.835Z,17.88
2018-07-16T07:00:58.837Z,17.90
2018-07-16T07:01:58.838Z,17.88
2018-07-16T07:02:58.839Z,17.80
2018-07-16T07:03:58.914Z,17.91
2018-07-16T07:04:58.840Z,17.91
2018-07-16T07:05:58.842Z,17.93
2018-07-16T07:06:58.850Z,17.94
2018-07-16T07:07:59.053Z,18.08
2018-07-16T07:08:58.845Z,18.27
2018-07-16T07:09:58.857Z,18.53
2018-07-16T07:10:58.848Z,18.60
2018-07-16T07:11:58.915Z,18.71
2018-07-16T07:12:58.849Z,18.70
2018-07-16T07:13:58.854Z,18.76
2018-07-16T07:14:58.854Z,18.76
2018-07-16T07:15:58.854Z,18.74
2018-07-16T07:16:58.857Z,18.66
2018-07-16T07:17:58.857Z,18.81
2018-07-16T07:18:59.157Z,18.91
2018-07-16T07:19:58.861Z,18.89
2018-07-16T07:20:58.862Z,18.85
2018-07-16T07:21:58.866Z,18.82
2018-07-16T07:22:58.869Z,19.04
2018-07-16T07:23:58.868Z,19.04
2018-07-16T07:24:58.870Z,19.07
2018-07-16T07:25:58.872Z,19.27
2018-07-16T07:26:58.875Z,19.30
2018-07-16T07:27:58.877Z,19.47
2018-07-16T07:28:58.881Z,19.59
2018-07-16T07:29:58.881Z,19.67
2018-07-16T07:30:58.886Z,20.03
2018-07-16T07:31:58.886Z,20.26
2018-07-16T07:32:58.890Z,20.49
2018-07-16T07:33:58.892Z,20.82
2018-07-16T07:34:58.963Z,21.03
2018-07-16T07:35:58.989Z,21.03
2018-07-16T07:36:58.904Z,20.93
2018-07-16T07:37:58.911Z,21.03
2018-07-16T07:38:58.916Z,20.86
2018-07-16T07:39:58.920Z,20.53
2018-07-16T07:40:58.946Z,20.26
2018-07-16T07:41:58.931Z,20.22
2018-07-16T07:42:58.935Z,20.21
2018-07-16T07:43:58.938Z,20.22
2018-07-16T07:44:58.944Z,20.24
2018-07-16T07:45:58.949Z,20.12
2018-07-16T07:46:58.953Z,20.33
2018-07-16T07:47:58.957Z,21.05
2018-07-16T07:48:58.960Z,21.32
2018-07-16T07:49:58.965Z,21.59
2018-07-16T07:50:58.971Z,21.80
2018-07-16T07:51:58.974Z,21.63
2018-07-16T07:52:58.979Z,21.66
2018-07-16T07:53:59.256Z,21.69
2018-07-16T07:54:59.172Z,21.28
2018-07-16T07:55:58.992Z,21.15
2018-07-16T07:56:58.997Z,21.11
2018-07-16T07:57:59.142Z,20.96
2018-07-16T07:58:59.007Z,20.98
2018-07-16T07:59:59.010Z,21.11
2018-07-16T08:00:59.315Z,21.26
2018-07-16T08:01:59.021Z,21.53
2018-07-16T08:02:59.026Z,21.85
2018-07-16T08:03:59.032Z,22.03
2018-07-16T08:04:59.039Z,21.88
2018-07-16T08:05:59.049Z,21.89
2018-07-16T08:06:59.049Z,21.85
2018-07-16T08:07:59.056Z,21.69
2018-07-16T08:08:59.061Z,21.54
2018-07-16T08:09:59.068Z,21.53
2018-07-16T08:10:59.073Z,21.47
2018-07-16T08:11:59.078Z,21.48
2018-07-16T08:12:59.084Z,21.54
2018-07-16T08:13:59.092Z,21.47
2018-07-16T08:14:59.327Z,21.44
2018-07-16T08:15:59.100Z,21.43
2018-07-16T08:16:59.186Z,21.66
2018-07-16T08:17:59.224Z,21.85
2018-07-16T08:18:59.212Z,21.68
2018-07-16T08:19:59.177Z,21.65
2018-07-16T08:20:59.147Z,21.54
2018-07-16T08:21:59.135Z,22.23
2018-07-16T08:22:59.140Z,22.77
2018-07-16T08:23:59.147Z,22.73
2018-07-16T08:24:59.152Z,22.58
2018-07-16T08:25:59.160Z,22.93
2018-07-16T08:26:59.169Z,23.08
2018-07-16T08:27:59.215Z,23.51
2018-07-16T08:28:59.182Z,23.81
2018-07-16T08:29:59.190Z,24.19
2018-07-16T08:30:59.202Z,24.78
2018-07-16T08:31:59.211Z,25.25
2018-07-16T08:32:59.217Z,24.85
2018-07-16T08:33:59.306Z,24.69
2018-07-16T08:34:59.239Z,24.68
2018-07-16T08:35:59.249Z,24.53
2018-07-16T08:36:59.261Z,25.00
2018-07-16T08:37:59.271Z,25.41
2018-07-16T08:38:59.340Z,25.96
2018-07-16T08:39:59.294Z,25.88
2018-07-16T08:40:59.308Z,25.43
2018-07-16T08:41:59.320Z,25.36
2018-07-16T08:42:59.332Z,25.61
2018-07-16T08:43:59.342Z,25.95
2018-07-16T08:44:59.357Z,26.33
2018-07-16T08:45:59.370Z,26.73
2018-07-16T08:46:59.508Z,27.10
2018-07-16T08:47:59.396Z,27.19
2018-07-16T08:48:59.408Z,26.44
2018-07-16T08:49:59.423Z,26.07
2018-07-16T08:50:59.438Z,26.07
2018-07-16T08:51:59.505Z,25.86
2018-07-16T08:52:59.464Z,26.10
2018-07-16T08:53:59.476Z,26.66
2018-07-16T08:54:59.492Z,26.64
2018-07-16T08:55:59.505Z,26.31
2018-07-16T08:56:59.520Z,26.01
2018-07-16T08:57:59.533Z,26.30
2018-07-16T08:58:59.546Z,26.59
2018-07-16T08:59:59.560Z,26.98
2018-07-16T09:00:59.575Z,27.29
2018-07-16T09:01:59.590Z,26.60
2018-07-16T09:02:59.604Z,26.68
2018-07-16T09:03:59.672Z,27.08
2018-07-16T09:04:59.632Z,27.67
2018-07-16T09:05:59.647Z,28.10
2018-07-16T09:06:59.663Z,28.33
2018-07-16T09:07:59.675Z,28.06
2018-07-16T09:08:59.690Z,27.82
2018-07-16T09:09:59.702Z,27.40
2018-07-16T09:10:59.754Z,27.01
2018-07-16T09:11:59.729Z,26.73
2018-07-16T09:12:59.741Z,26.55
2018-07-16T09:13:59.760Z,26.29
2018-07-16T09:14:59.769Z,25.93
2018-07-16T09:15:59.781Z,25.43
2018-07-16T09:16:59.831Z,25.18
2018-07-16T09:17:59.803Z,25.19
2018-07-16T09:18:59.815Z,25.14
2018-07-16T09:19:59.832Z,25.19
2018-07-16T09:20:59.838Z,25.46
2018-07-16T09:21:59.852Z,25.74
2018-07-16T09:22:59.860Z,25.37
2018-07-16T09:23:59.871Z,25.01
2018-07-16T09:24:59.882Z,25.14
2018-07-16T09:26:00.186Z,25.31
2018-07-16T09:26:59.906Z,25.26
2018-07-16T09:27:59.915Z,25.43
2018-07-16T09:28:59.928Z,25.14
2018-07-16T09:29:59.938Z,25.11
2018-07-16T09:30:59.948Z,25.49
2018-07-16T09:31:59.960Z,25.80
2018-07-16T09:33:00.519Z,25.96
2018-07-16T09:34:00.036Z,25.95
2018-07-16T09:34:59.998Z,26.15
2018-07-16T09:36:00.224Z,26.15
2018-07-16T09:37:00.021Z,25.74
2018-07-16T09:38:00.033Z,25.52
2018-07-16T09:39:00.061Z,25.85
2018-07-16T09:40:00.264Z,25.96
2018-07-16T09:41:00.067Z,25.92
2018-07-16T09:42:00.080Z,26.01
2018-07-16T09:43:00.088Z,26.24
2018-07-16T09:44:00.108Z,26.59
2018-07-16T09:45:00.115Z,26.97
2018-07-16T09:46:00.125Z,27.07
2018-07-16T09:47:00.472Z,27.30
2018-07-16T09:48:00.148Z,26.71
2018-07-16T09:49:00.162Z,27.00
2018-07-16T09:50:00.227Z,27.04
2018-07-16T09:51:00.188Z,27.22
2018-07-16T09:52:00.198Z,26.67
2018-07-16T09:53:00.212Z,26.22
2018-07-16T09:54:00.521Z,25.96
2018-07-16T09:55:00.238Z,25.95
2018-07-16T09:56:00.292Z,26.10
2018-07-16T09:57:00.718Z,26.08
2018-07-16T09:58:00.277Z,26.45
2018-07-16T09:59:00.289Z,26.70
2018-07-16T10:00:00.415Z,27.10
2018-07-16T10:01:00.318Z,27.60
2018-07-16T10:02:00.491Z,27.91
2018-07-16T10:03:00.343Z,28.23
2018-07-16T10:04:00.416Z,28.50
2018-07-16T10:05:00.576Z,28.37
2018-07-16T10:06:00.380Z,28.53
2018-07-16T10:07:00.749Z,28.71
2018-07-16T10:08:00.466Z,28.93
2018-07-16T10:09:00.451Z,28.83
2018-07-16T10:10:00.514Z,28.83
2018-07-16T10:11:00.445Z,28.64
2018-07-16T10:12:00.458Z,28.19
2018-07-16T10:13:00.468Z,27.34
2018-07-16T10:14:00.483Z,26.76
2018-07-16T10:15:00.498Z,26.76
2018-07-16T10:16:00.509Z,26.34
2018-07-16T10:17:00.565Z,26.11
2018-07-16T10:18:00.535Z,26.34
2018-07-16T10:19:00.549Z,26.56
2018-07-16T10:20:00.561Z,26.85
2018-07-16T10:21:00.573Z,27.18
2018-07-16T10:22:00.590Z,27.58
2018-07-16T10:23:00.599Z,27.78
2018-07-16T10:24:00.616Z,28.13
2018-07-16T10:25:00.625Z,28.20
2018-07-16T10:26:00.637Z,28.00
2018-07-16T10:27:00.649Z,27.60
2018-07-16T10:28:00.661Z,27.13
2018-07-16T10:29:00.673Z,26.92
2018-07-16T10:30:00.686Z,26.74
2018-07-16T10:31:00.699Z,26.53
2018-07-16T10:32:00.711Z,26.36
2018-07-16T10:33:00.724Z,26.48
2018-07-16T10:34:00.844Z,26.34
2018-07-16T10:35:00.749Z,26.31
2018-07-16T10:36:00.760Z,26.24
2018-07-16T10:37:00.775Z,26.46
2018-07-16T10:38:00.786Z,26.93
2018-07-16T10:39:00.796Z,27.22
2018-07-16T10:40:00.807Z,27.63
2018-07-16T10:41:00.819Z,27.91
2018-07-16T10:42:00.832Z,27.78
2018-07-16T10:43:00.842Z,27.30
2018-07-16T10:44:00.854Z,26.96
2018-07-16T10:45:00.867Z,26.64
2018-07-16T10:46:00.878Z,26.68
2018-07-16T10:47:00.890Z,26.70
2018-07-16T10:48:00.902Z,26.46
2018-07-16T10:49:00.916Z,26.30
2018-07-16T10:50:00.925Z,26.31
2018-07-16T10:51:00.937Z,26.82
2018-07-16T10:52:00.948Z,27.13
2018-07-16T10:53:00.959Z,27.10
2018-07-16T10:54:00.970Z,27.01
2018-07-16T10:55:00.985Z,27.26
2018-07-16T10:56:00.993Z,27.73
2018-07-16T10:57:01.005Z,27.67
2018-07-16T10:58:01.016Z,27.47
2018-07-16T10:59:01.028Z,27.60
2018-07-16T11:00:01.038Z,27.68
2018-07-16T11:01:01.105Z,27.79
2018-07-16T11:02:01.121Z,28.00
2018-07-16T11:03:01.124Z,28.08
2018-07-16T11:04:01.087Z,28.16
2018-07-16T11:05:01.097Z,27.82
2018-07-16T11:06:01.108Z,27.64
2018-07-16T11:07:01.127Z,27.81
2018-07-16T11:08:01.134Z,27.41
2018-07-16T11:09:01.142Z,26.91
2018-07-16T11:10:01.156Z,26.81
2018-07-16T11:11:01.167Z,27.33
2018-07-16T11:12:01.177Z,27.66
2018-07-16T11:13:01.189Z,28.09
2018-07-16T11:14:01.199Z,28.34
2018-07-16T11:15:01.260Z,28.60
2018-07-16T11:16:01.223Z,28.80
2018-07-16T11:17:01.238Z,28.56
2018-07-16T11:18:01.246Z,28.64
2018-07-16T11:19:01.259Z,28.86
2018-07-16T11:20:01.270Z,29.15
2018-07-16T11:21:01.374Z,28.97
2018-07-16T11:22:01.295Z,29.03
2018-07-16T11:23:01.305Z,29.22
2018-07-16T11:24:01.319Z,29.24
2018-07-16T11:25:01.329Z,29.27
2018-07-16T11:26:01.341Z,29.15
2018-07-16T11:27:01.353Z,28.62
2018-07-16T11:28:01.366Z,28.19
2018-07-16T11:29:01.380Z,27.63
2018-07-16T11:30:01.388Z,27.16
2018-07-16T11:31:01.402Z,26.97
2018-07-16T11:32:02.365Z,26.61
2018-07-16T11:33:01.677Z,26.46
2018-07-16T11:34:01.543Z,26.56
2018-07-16T11:35:01.879Z,26.76
2018-07-16T11:36:01.458Z,26.63
2018-07-16T11:37:01.470Z,26.53
2018-07-16T11:38:01.480Z,26.45
2018-07-16T11:39:01.495Z,26.51
2018-07-16T11:40:01.503Z,26.74
2018-07-16T11:41:01.514Z,26.97
2018-07-16T11:42:01.785Z,26.92
2018-07-16T11:43:01.826Z,26.96
2018-07-16T11:44:01.826Z,26.89
2018-07-16T11:45:02.062Z,27.00
2018-07-16T11:46:01.625Z,27.04
2018-07-16T11:47:01.579Z,26.93
2018-07-16T11:48:01.589Z,26.68
2018-07-16T11:49:01.662Z,26.67
2018-07-16T11:50:01.611Z,26.56
2018-07-16T11:51:01.938Z,26.59
2018-07-16T11:52:02.440Z,26.42
2018-07-16T11:53:01.931Z,26.22
2018-07-16T11:54:01.946Z,26.29
2018-07-16T11:55:01.664Z,26.56
2018-07-16T11:56:02.005Z,26.89
2018-07-16T11:57:01.896Z,27.20
2018-07-16T11:58:01.989Z,27.35
2018-07-16T11:59:01.800Z,27.58
2018-07-16T12:00:01.710Z,27.75
2018-07-16T12:01:01.774Z,27.82
2018-07-16T12:02:01.732Z,27.30
2018-07-16T12:03:01.741Z,27.01
2018-07-16T12:04:01.807Z,26.82
2018-07-16T12:05:01.769Z,26.44
2018-07-16T12:06:01.769Z,26.10
2018-07-16T12:07:02.023Z,25.78
2018-07-16T12:08:02.029Z,25.74
2018-07-16T12:09:02.093Z,25.63
2018-07-16T12:10:02.054Z,25.62
2018-07-16T12:11:02.095Z,25.70
2018-07-16T12:12:02.100Z,25.68
2018-07-16T12:13:02.012Z,25.54
2018-07-16T12:14:02.072Z,25.41
2018-07-16T12:15:02.376Z,25.39
2018-07-16T12:16:02.129Z,25.29
2018-07-16T12:17:02.105Z,25.15
2018-07-16T12:18:02.181Z,25.16
2018-07-16T12:19:01.992Z,25.24
2018-07-16T12:20:02.097Z,25.29
2018-07-16T12:21:02.006Z,25.19
2018-07-16T12:22:02.115Z,25.12
2018-07-16T12:23:02.135Z,25.16
2018-07-16T12:24:02.461Z,25.18
2018-07-16T12:25:02.065Z,25.16
2018-07-16T12:26:02.242Z,25.15
2018-07-16T12:27:02.151Z,25.01
2018-07-16T12:28:02.241Z,25.12
2018-07-16T12:29:02.247Z,24.99
2018-07-16T12:30:02.182Z,25.15
2018-07-16T12:31:02.175Z,25.09
2018-07-16T12:32:02.221Z,25.25
2018-07-16T12:33:02.200Z,25.31
2018-07-16T12:34:02.071Z,25.22
2018-07-16T12:35:02.113Z,25.63
2018-07-16T12:36:02.183Z,25.77
2018-07-16T12:37:02.406Z,25.95
2018-07-16T12:38:02.201Z,26.15
2018-07-16T12:39:02.258Z,26.19
2018-07-16T12:40:02.161Z,26.60
2018-07-16T12:41:02.025Z,26.79
2018-07-16T12:42:02.031Z,27.13
2018-07-16T12:43:02.039Z,27.40
2018-07-16T12:44:02.046Z,27.48
2018-07-16T12:45:02.461Z,27.71
2018-07-16T12:46:02.300Z,27.40
2018-07-16T12:47:02.168Z,27.16
2018-07-16T12:48:02.279Z,27.23
2018-07-16T12:49:02.219Z,27.43
2018-07-16T12:50:02.095Z,27.22
2018-07-16T12:51:02.143Z,27.15
2018-07-16T12:52:02.421Z,26.88
2018-07-16T12:53:02.122Z,26.97